createdAt,value
2023-05-21T00:06:33.019Z,12.11
2023-05-21T00:22:51.009Z,12.19
2023-05-21T00:25:31.898Z,12.23
2023-05-21T00:28:00.463Z,12.22
2023-05-21T00:30:31.802Z,12.26
2023-05-21T00:33:03.328Z,12.25
2023-05-21T00:35:39.097Z,12.26
2023-05-21T00:38:08.809Z,12.25
2023-05-21T00:40:39.393Z,12.21
2023-05-21T00:43:11.099Z,12.27
2023-05-21T00:45:46.808Z,12.33
2023-05-21T00:48:17.029Z,12.33
2023-05-21T00:50:45.075Z,12.36
2023-05-21T00:53:15.727Z,12.41
2023-05-21T00:55:43.923Z,12.45
2023-05-21T00:58:12.290Z,12.39
2023-05-21T01:00:40.823Z,12.42
2023-05-21T01:03:12.109Z,12.44
2023-05-21T01:05:40.062Z,12.48
2023-05-21T01:08:10.540Z,12.49
2023-05-21T01:10:38.388Z,12.50
2023-05-21T01:13:06.736Z,12.54
2023-05-21T01:15:35.798Z,12.62
2023-05-21T01:18:05.026Z,12.67
2023-05-21T01:20:32.856Z,12.74
2023-05-21T01:23:03.732Z,12.78
2023-05-21T01:25:31.333Z,12.77
2023-05-21T01:28:01.685Z,12.83
2023-05-21T01:30:32.155Z,12.86
2023-05-21T01:33:10.855Z,12.93
2023-05-21T01:35:50.632Z,12.97
2023-05-21T01:38:28.240Z,12.97
2023-05-21T01:41:06.016Z,12.99
2023-05-21T01:43:39.967Z,13.00
2023-05-21T01:46:10.905Z,12.95
2023-05-21T01:48:41.326Z,12.94
2023-05-21T01:51:13.980Z,12.96
2023-05-21T01:53:41.809Z,13.02
2023-05-21T01:56:09.505Z,13.01
2023-05-21T01:58:37.457Z,13.05
2023-05-21T02:01:08.922Z,13.06
2023-05-21T02:03:38.094Z,13.09
2023-05-21T02:06:06.446Z,13.16
2023-05-21T02:08:34.203Z,13.31
2023-05-21T02:11:02.533Z,13.38
2023-05-21T02:13:33.447Z,13.43
2023-05-21T02:16:01.688Z,13.44
2023-05-21T02:18:30.046Z,13.46
2023-05-21T02:20:58.225Z,13.53
2023-05-21T02:23:26.351Z,13.57
2023-05-21T02:25:54.788Z,13.58
2023-05-21T02:28:24.884Z,13.64
2023-05-21T02:30:52.901Z,13.64
2023-05-21T02:33:22.303Z,13.67
2023-05-21T02:35:50.115Z,13.74
2023-05-21T02:38:19.621Z,13.75
2023-05-21T02:40:47.910Z,13.80
2023-05-21T02:43:16.255Z,13.86
2023-05-21T02:45:46.477Z,13.94
2023-05-21T02:48:15.827Z,13.97
2023-05-21T02:50:45.770Z,14.00
2023-05-21T02:53:13.655Z,14.02
2023-05-21T02:55:42.172Z,14.01
2023-05-21T02:58:10.255Z,14.04
2023-05-21T03:00:40.662Z,14.06
2023-05-21T03:03:08.729Z,14.13
2023-05-21T03:05:37.257Z,14.18
2023-05-21T03:08:05.654Z,14.23
2023-05-21T03:10:33.420Z,14.28
2023-05-21T03:13:05.403Z,14.31
2023-05-21T03:15:34.862Z,14.33
2023-05-21T03:18:03.172Z,14.32
2023-05-21T03:20:30.902Z,14.33
2023-05-21T03:22:58.783Z,14.35
2023-05-21T03:25:31.685Z,14.38
2023-05-21T03:27:59.635Z,14.39
2023-05-21T03:30:49.746Z,14.39
2023-05-21T03:33:44.030Z,14.47
2023-05-21T03:36:30.687Z,14.64
2023-05-21T03:38:59.709Z,14.72
2023-05-21T03:41:27.608Z,14.76
2023-05-21T03:44:01.388Z,14.84
2023-05-21T03:46:37.742Z,14.88
2023-05-21T03:49:12.171Z,14.88
2023-05-21T03:51:42.408Z,14.81
2023-05-21T03:54:14.169Z,14.70
2023-05-21T03:56:42.404Z,14.63
2023-05-21T03:59:10.581Z,14.58
2023-05-21T04:01:39.231Z,14.55
2023-05-21T04:04:13.058Z,14.44
2023-05-21T04:06:42.428Z,14.37
2023-05-21T04:09:12.048Z,14.38
2023-05-21T04:11:39.834Z,14.33
2023-05-21T04:14:08.081Z,14.24
2023-05-21T04:16:38.814Z,14.23
2023-05-21T04:19:09.435Z,14.43
2023-05-21T04:21:37.308Z,14.64
2023-05-21T04:24:06.404Z,14.96
2023-05-21T04:26:57.543Z,15.17
2023-05-21T04:29:26.027Z,15.03
2023-05-21T04:31:54.110Z,14.88
2023-05-21T04:34:21.877Z,14.76
2023-05-21T04:36:50.202Z,14.75
2023-05-21T04:39:17.956Z,14.75
2023-05-21T04:41:45.686Z,14.92
2023-05-21T04:44:15.200Z,15.19
2023-05-21T04:46:46.259Z,15.39
2023-05-21T04:49:16.964Z,15.51
2023-05-21T04:51:45.406Z,15.58
2023-05-21T04:54:16.056Z,15.68
2023-05-21T04:56:44.550Z,15.64
2023-05-21T04:59:12.743Z,15.58
2023-05-21T05:01:41.713Z,15.57
2023-05-21T05:04:09.699Z,15.59
2023-05-21T05:06:37.335Z,15.58
2023-05-21T05:09:05.974Z,15.53
2023-05-21T05:11:33.905Z,15.52
2023-05-21T05:14:03.940Z,15.56
2023-05-21T05:16:33.233Z,15.64
2023-05-21T05:19:00.818Z,15.74
2023-05-21T05:21:29.196Z,15.78
2023-05-21T05:23:56.985Z,15.76
2023-05-21T05:26:28.302Z,15.71
2023-05-21T05:28:57.048Z,15.65
2023-05-21T05:31:27.268Z,15.57
2023-05-21T05:33:55.857Z,15.53
2023-05-21T05:36:25.135Z,15.54
2023-05-21T05:38:53.608Z,15.50
2023-05-21T05:41:22.772Z,15.50
2023-05-21T05:43:53.190Z,15.62
2023-05-21T05:46:22.975Z,15.83
2023-05-21T05:48:51.980Z,16.03
2023-05-21T05:51:19.503Z,16.16
2023-05-21T05:53:47.360Z,16.14
2023-05-21T05:56:17.672Z,16.08
2023-05-21T05:58:45.922Z,15.95
2023-05-21T06:01:16.577Z,15.82
2023-05-21T06:03:45.623Z,15.93
2023-05-21T06:06:17.479Z,16.13
2023-05-21T06:08:46.392Z,16.26
2023-05-21T06:11:17.384Z,16.36
2023-05-21T06:13:45.833Z,16.46
2023-05-21T06:16:14.693Z,16.53
2023-05-21T06:18:42.378Z,16.59
2023-05-21T06:21:10.609Z,16.84
2023-05-21T06:23:40.179Z,17.26
2023-05-21T06:26:08.448Z,17.74
2023-05-21T06:28:36.523Z,18.28
2023-05-21T06:31:04.955Z,18.64
2023-05-21T06:33:34.523Z,18.73
2023-05-21T06:36:02.266Z,18.85
2023-05-21T06:38:30.756Z,19.12
2023-05-21T06:40:59.550Z,19.47
2023-05-21T06:43:49.902Z,19.68
2023-05-21T06:46:36.850Z,19.63
2023-05-21T06:49:14.597Z,19.64
2023-05-21T06:51:43.853Z,19.77
2023-05-21T06:54:13.593Z,19.70
2023-05-21T06:56:42.171Z,19.92
2023-05-21T06:59:10.996Z,20.08
2023-05-21T07:01:42.826Z,20.08
2023-05-21T07:04:11.306Z,19.96
2023-05-21T07:06:42.925Z,19.70
2023-05-21T07:09:10.991Z,19.53
2023-05-21T07:11:39.562Z,19.38
2023-05-21T07:14:09.494Z,19.30
2023-05-21T07:16:39.480Z,19.38
2023-05-21T07:19:10.620Z,19.64
2023-05-21T07:21:38.700Z,19.88
2023-05-21T07:24:08.255Z,19.99
2023-05-21T07:26:43.036Z,20.06
2023-05-21T07:29:12.061Z,20.28
2023-05-21T07:31:40.315Z,20.44
2023-05-21T07:34:11.563Z,20.26
2023-05-21T07:36:44.180Z,19.94
2023-05-21T07:39:15.752Z,19.63
2023-05-21T07:41:46.708Z,19.53
2023-05-21T07:44:16.417Z,19.60
2023-05-21T07:46:46.358Z,19.79
2023-05-21T07:49:17.770Z,20.08
2023-05-21T07:51:48.793Z,20.41
2023-05-21T07:54:17.037Z,20.51
2023-05-21T07:56:45.707Z,20.63
2023-05-21T07:59:26.284Z,20.82
2023-05-21T08:01:54.659Z,20.92
2023-05-21T08:04:23.181Z,20.98
2023-05-21T08:06:52.716Z,21.00
2023-05-21T08:09:20.711Z,21.13
2023-05-21T08:11:48.783Z,21.24
2023-05-21T08:14:16.376Z,21.22
2023-05-21T08:16:45.341Z,20.96
2023-05-21T08:19:13.509Z,20.70
2023-05-21T08:21:41.557Z,20.63
2023-05-21T08:24:10.507Z,20.65
2023-05-21T08:26:39.641Z,20.73
2023-05-21T08:29:07.747Z,20.81
2023-05-21T08:32:03.084Z,20.71
2023-05-21T08:34:32.490Z,20.21
2023-05-21T08:37:13.798Z,19.93
2023-05-21T08:40:08.336Z,20.16
2023-05-21T08:42:45.571Z,20.69
2023-05-21T08:45:22.882Z,21.21
2023-05-21T08:47:57.743Z,21.62
2023-05-21T08:50:28.465Z,21.68
2023-05-21T08:53:04.044Z,21.33
2023-05-21T08:55:39.326Z,20.92
2023-05-21T08:58:07.692Z,20.65
2023-05-21T09:00:35.795Z,20.56
2023-05-21T09:03:10.820Z,20.48
2023-05-21T09:05:44.956Z,20.35
2023-05-21T09:08:32.578Z,20.46
2023-05-21T09:11:04.304Z,20.31
2023-05-21T09:13:39.680Z,20.37
2023-05-21T09:16:14.325Z,20.43
2023-05-21T09:18:44.028Z,20.51
2023-05-21T09:21:28.827Z,20.49
2023-05-21T09:24:03.365Z,20.52
2023-05-21T09:26:34.363Z,20.68
2023-05-21T09:29:05.692Z,20.84
2023-05-21T09:31:33.894Z,20.80
2023-05-21T09:34:02.513Z,20.70
2023-05-21T09:36:34.950Z,20.49
2023-05-21T09:39:03.529Z,20.44
2023-05-21T09:41:34.691Z,20.65
2023-05-21T09:44:03.086Z,20.89
2023-05-21T09:46:40.372Z,21.15
2023-05-21T09:49:25.181Z,21.47
2023-05-21T09:52:00.399Z,21.61
2023-05-21T09:54:33.807Z,21.42
2023-05-21T09:57:05.064Z,21.27
2023-05-21T09:59:40.308Z,21.10
2023-05-21T10:02:32.196Z,20.89
2023-05-21T10:05:00.960Z,20.60
2023-05-21T10:07:33.025Z,20.41
2023-05-21T10:10:06.155Z,20.32
2023-05-21T10:12:35.042Z,20.24
2023-05-21T10:15:09.978Z,20.09
2023-05-21T10:17:38.604Z,19.93
2023-05-21T10:20:08.664Z,19.83
2023-05-21T10:22:37.841Z,19.61
2023-05-21T10:25:07.994Z,19.66
2023-05-21T10:27:37.876Z,20.01
2023-05-21T10:30:08.814Z,20.43
2023-05-21T10:32:37.060Z,20.93
2023-05-21T10:35:05.841Z,21.33
2023-05-21T10:37:36.573Z,21.51
2023-05-21T10:40:05.158Z,21.56
2023-05-21T10:42:35.952Z,21.68
2023-05-21T10:45:27.307Z,21.79
2023-05-21T10:48:02.087Z,21.56
2023-05-21T10:50:30.139Z,21.62
2023-05-21T10:53:09.959Z,21.97
2023-05-21T10:55:52.302Z,22.26
2023-05-21T10:58:38.348Z,22.52
2023-05-21T11:01:07.676Z,22.73
2023-05-21T11:03:38.052Z,22.91
2023-05-21T11:06:06.712Z,23.07
2023-05-21T11:08:39.337Z,23.22
2023-05-21T11:11:09.974Z,23.34
2023-05-21T11:13:51.608Z,23.20
2023-05-21T11:16:22.456Z,22.92
2023-05-21T11:18:50.450Z,22.57
2023-05-21T11:21:21.286Z,22.48
2023-05-21T11:24:03.226Z,22.53
2023-05-21T11:26:56.238Z,22.78
2023-05-21T11:29:33.684Z,23.13
2023-05-21T11:32:03.247Z,23.48
2023-05-21T11:34:41.899Z,23.76
2023-05-21T11:37:19.275Z,24.12
2023-05-21T11:39:48.238Z,24.39
2023-05-21T11:42:41.554Z,24.64
2023-05-21T11:45:12.598Z,24.81
2023-05-21T11:47:40.912Z,24.94
2023-05-21T11:50:14.301Z,24.81
2023-05-21T11:52:44.713Z,24.69
2023-05-21T11:55:14.041Z,24.70
2023-05-21T11:57:48.359Z,24.61
2023-05-21T12:00:17.620Z,24.21
2023-05-21T12:02:53.994Z,23.69
2023-05-21T12:05:23.672Z,23.17
2023-05-21T12:07:51.741Z,22.65
2023-05-21T12:10:24.315Z,22.40
2023-05-21T12:12:56.935Z,22.09
2023-05-21T12:15:27.300Z,21.83
2023-05-21T12:17:56.348Z,21.46
2023-05-21T12:20:27.319Z,21.17
2023-05-21T12:22:55.190Z,21.02
2023-05-21T12:25:23.359Z,20.97
2023-05-21T12:27:58.019Z,20.80
2023-05-21T12:30:26.889Z,20.55
2023-05-21T12:32:58.448Z,20.43
2023-05-21T12:35:26.558Z,20.44
2023-05-21T12:37:54.490Z,20.59
2023-05-21T12:40:22.483Z,20.84
2023-05-21T12:42:51.140Z,21.13
2023-05-21T12:45:19.347Z,21.38
2023-05-21T12:47:56.669Z,22.25
2023-05-21T12:50:25.025Z,23.82
2023-05-21T12:52:58.803Z,24.13
2023-05-21T12:55:26.768Z,25.83
2023-05-21T12:58:09.319Z,27.41
2023-05-21T13:00:38.379Z,28.78
2023-05-21T13:03:09.052Z,29.98
2023-05-21T13:05:41.836Z,31.02
2023-05-21T13:08:12.820Z,31.85
2023-05-21T13:10:41.040Z,32.72
2023-05-21T13:13:09.498Z,33.56
2023-05-21T13:15:37.268Z,33.56
2023-05-21T13:18:05.137Z,33.11
2023-05-21T13:20:33.145Z,32.98
2023-05-21T13:23:02.935Z,33.36
2023-05-21T13:25:33.006Z,32.40
2023-05-21T13:28:05.542Z,30.59
2023-05-21T13:30:34.100Z,29.02
2023-05-21T13:33:07.439Z,27.57
2023-05-21T13:35:35.812Z,26.34
2023-05-21T13:38:03.824Z,25.34
2023-05-21T13:40:31.775Z,24.70
2023-05-21T13:43:00.159Z,24.24
2023-05-21T13:45:29.457Z,23.87
2023-05-21T13:47:57.640Z,23.61
2023-05-21T13:50:25.633Z,23.36
2023-05-21T13:52:53.586Z,23.20
2023-05-21T13:55:21.670Z,23.15
2023-05-21T13:57:49.492Z,23.09
2023-05-21T14:00:17.312Z,23.09
2023-05-21T14:02:45.346Z,23.19
2023-05-21T14:05:13.869Z,23.29
2023-05-21T14:07:42.241Z,23.38
2023-05-21T14:10:10.362Z,23.39
2023-05-21T14:12:38.665Z,23.46
2023-05-21T14:15:12.059Z,23.68
2023-05-21T14:17:40.793Z,24.25
2023-05-21T14:20:10.799Z,24.68
2023-05-21T14:22:39.050Z,24.96
2023-05-21T14:25:07.254Z,25.54
2023-05-21T14:27:37.945Z,26.39
2023-05-21T14:30:07.129Z,29.00
2023-05-21T14:32:34.663Z,31.93
2023-05-21T14:35:02.585Z,33.39
2023-05-21T14:37:31.750Z,32.76
2023-05-21T14:39:59.693Z,31.38
2023-05-21T14:42:27.467Z,29.99
2023-05-21T14:44:55.128Z,28.90
2023-05-21T14:47:23.203Z,27.81
2023-05-21T14:49:51.724Z,26.87
2023-05-21T14:52:20.578Z,26.02
2023-05-21T14:54:48.725Z,25.34
2023-05-21T14:57:18.610Z,24.72
2023-05-21T14:59:46.593Z,23.98
2023-05-21T15:02:14.318Z,23.39
2023-05-21T15:04:41.962Z,22.85
2023-05-21T15:07:09.489Z,22.58
2023-05-21T15:09:37.748Z,22.46
2023-05-21T15:12:05.731Z,22.23
2023-05-21T15:14:33.974Z,22.12
2023-05-21T15:17:01.687Z,22.14
2023-05-21T15:19:32.763Z,22.09
2023-05-21T15:22:01.359Z,22.00
2023-05-21T15:24:29.028Z,21.82
2023-05-21T15:26:56.811Z,21.63
2023-05-21T15:29:24.695Z,21.48
2023-05-21T15:31:52.632Z,21.37
2023-05-21T15:34:20.222Z,21.33
2023-05-21T15:36:47.731Z,21.38
2023-05-21T15:39:17.528Z,21.49
2023-05-21T15:41:45.120Z,21.77
2023-05-21T15:44:13.226Z,23.32
2023-05-21T15:46:40.908Z,24.38
2023-05-21T15:49:08.724Z,25.61
2023-05-21T15:51:36.468Z,27.46
2023-05-21T15:54:04.524Z,27.44
2023-05-21T15:56:32.443Z,26.49
2023-05-21T15:59:01.510Z,25.36
2023-05-21T16:01:29.294Z,24.23
2023-05-21T16:03:57.135Z,23.32
2023-05-21T16:06:24.805Z,22.59
2023-05-21T16:08:54.985Z,21.87
2023-05-21T16:11:22.808Z,21.26
2023-05-21T16:13:50.873Z,20.90
2023-05-21T16:16:18.581Z,20.69
2023-05-21T16:18:46.460Z,21.20
2023-05-21T16:21:14.368Z,22.14
2023-05-21T16:23:42.452Z,22.90
2023-05-21T16:26:10.542Z,22.83
2023-05-21T16:28:40.452Z,22.50
2023-05-21T16:31:09.292Z,22.16
2023-05-21T16:33:38.552Z,22.22
2023-05-21T16:36:06.286Z,23.14
2023-05-21T16:38:36.639Z,24.16
2023-05-21T16:41:05.037Z,23.98
2023-05-21T16:43:32.545Z,23.12
2023-05-21T16:46:00.182Z,22.28
2023-05-21T16:48:28.513Z,21.65
2023-05-21T16:50:56.176Z,21.20
2023-05-21T16:53:24.331Z,20.86
2023-05-21T16:55:51.839Z,20.55
2023-05-21T16:58:19.420Z,20.21
2023-05-21T17:00:47.564Z,19.91
2023-05-21T17:03:15.364Z,19.67
2023-05-21T17:05:43.277Z,19.40
2023-05-21T17:08:10.893Z,19.24
2023-05-21T17:10:38.538Z,19.07
2023-05-21T17:13:18.328Z,18.87
2023-05-21T17:16:08.174Z,18.55
2023-05-21T17:18:36.053Z,18.32
2023-05-21T17:21:03.664Z,18.13
2023-05-21T17:23:31.136Z,17.93
2023-05-21T17:25:59.027Z,17.79
2023-05-21T17:28:26.730Z,17.67
2023-05-21T17:30:54.812Z,17.55
2023-05-21T17:33:23.855Z,17.38
2023-05-21T17:35:51.687Z,17.27
2023-05-21T17:38:19.803Z,17.13
2023-05-21T17:40:48.811Z,16.98
2023-05-21T17:43:16.639Z,16.90
2023-05-21T17:45:44.201Z,16.84
2023-05-21T17:48:12.251Z,16.78
2023-05-21T17:50:40.805Z,16.68
2023-05-21T17:53:08.734Z,16.61
2023-05-21T17:55:37.308Z,16.49
2023-05-21T17:58:09.926Z,16.39
2023-05-21T18:00:38.121Z,16.32
2023-05-21T18:03:06.700Z,16.28
2023-05-21T18:05:34.675Z,16.25
2023-05-21T18:08:03.079Z,16.27
2023-05-21T18:10:30.884Z,16.25
2023-05-21T18:12:58.969Z,16.23
2023-05-21T18:15:26.690Z,16.19
2023-05-21T18:17:54.713Z,16.10
2023-05-21T18:20:22.385Z,16.02
2023-05-21T18:22:50.861Z,15.91
2023-05-21T18:25:18.696Z,15.78
2023-05-21T18:27:46.687Z,15.70
2023-05-21T18:30:16.159Z,15.56
2023-05-21T18:32:44.995Z,15.40
2023-05-21T18:35:14.452Z,15.32
2023-05-21T18:37:44.576Z,15.19
2023-05-21T18:40:13.310Z,15.07
2023-05-21T18:42:41.568Z,14.93
2023-05-21T18:45:10.702Z,14.84
2023-05-21T18:47:40.420Z,14.76
2023-05-21T18:50:12.926Z,14.65
2023-05-21T18:52:41.577Z,14.61
2023-05-21T18:55:09.995Z,14.51
2023-05-21T18:57:38.410Z,14.49
2023-05-21T19:00:09.953Z,14.44
2023-05-21T19:02:39.227Z,14.36
2023-05-21T19:05:08.130Z,14.34
2023-05-21T19:07:36.580Z,14.29
2023-05-21T19:10:05.420Z,14.25
2023-05-21T19:12:36.582Z,14.23
2023-05-21T19:15:07.485Z,14.17
2023-05-21T19:17:42.160Z,14.15
2023-05-21T19:20:10.580Z,14.09
2023-05-21T19:22:41.244Z,14.11
2023-05-21T19:25:09.743Z,14.08
2023-05-21T19:27:37.832Z,14.04
2023-05-21T19:30:07.991Z,14.00
2023-05-21T19:32:36.380Z,13.92
2023-05-21T19:35:05.911Z,13.86
2023-05-21T19:37:37.695Z,13.82
2023-05-21T19:40:07.882Z,13.81
2023-05-21T19:42:40.029Z,13.75
2023-05-21T19:45:33.066Z,13.73
2023-05-21T19:48:27.798Z,13.68
2023-05-21T19:50:55.983Z,13.62
2023-05-21T19:56:46.142Z,13.56
2023-05-21T19:59:19.953Z,13.55
2023-05-21T20:01:50.207Z,13.54
2023-05-21T20:04:18.917Z,13.50
2023-05-21T20:06:46.772Z,13.48
2023-05-21T20:09:16.492Z,13.44
2023-05-21T20:11:45.808Z,13.38
2023-05-21T20:14:13.957Z,13.38
2023-05-21T20:16:42.783Z,13.33
2023-05-21T20:19:11.648Z,13.28
2023-05-21T20:21:40.000Z,13.28
2023-05-21T20:24:08.938Z,13.23
2023-05-21T20:26:36.748Z,13.21
2023-05-21T20:29:07.065Z,13.16
2023-05-21T20:31:35.194Z,13.17
2023-05-21T20:34:09.385Z,13.16
2023-05-21T20:36:37.660Z,13.17
2023-05-21T20:39:06.480Z,13.18
2023-05-21T20:41:37.877Z,13.19
2023-05-21T20:44:06.775Z,13.24
2023-05-21T20:46:38.877Z,13.23
2023-05-21T20:49:07.889Z,13.30
2023-05-21T20:51:36.178Z,13.30
2023-05-21T20:54:04.121Z,13.28
2023-05-21T20:59:03.131Z,13.28
2023-05-21T21:01:31.465Z,13.37
2023-05-21T21:03:59.674Z,13.49
2023-05-21T21:06:30.263Z,13.64
2023-05-21T21:08:58.918Z,13.82
2023-05-21T21:11:27.221Z,13.98
2023-05-21T21:13:55.616Z,14.08
2023-05-21T21:16:23.280Z,14.13
2023-05-21T21:18:51.264Z,14.16
2023-05-21T21:21:19.997Z,14.15
2023-05-21T21:23:48.188Z,14.17
2023-05-21T21:26:18.081Z,14.14
2023-05-21T21:28:46.998Z,14.08
2023-05-21T21:31:18.222Z,14.03
2023-05-21T21:33:49.615Z,13.99
2023-05-21T21:36:19.570Z,13.91
2023-05-21T21:38:47.736Z,13.94
2023-05-21T21:41:16.394Z,13.98
2023-05-21T21:43:44.308Z,13.93
2023-05-21T21:46:19.367Z,13.87
2023-05-21T21:48:50.555Z,13.77
2023-05-21T21:51:23.414Z,13.79
2023-05-21T21:53:53.090Z,13.76
2023-05-21T21:56:22.557Z,13.86
2023-05-21T21:58:51.954Z,13.94
2023-05-21T22:01:32.164Z,13.94
2023-05-21T22:03:59.962Z,13.98
2023-05-21T22:06:28.719Z,13.92
2023-05-21T22:08:57.045Z,13.90
2023-05-21T22:11:26.678Z,13.92
2023-05-21T22:13:54.578Z,13.92
2023-05-21T22:16:24.888Z,13.99
2023-05-21T22:18:54.525Z,14.07
2023-05-21T22:21:27.298Z,14.14
2023-05-21T22:23:56.342Z,14.15
2023-05-21T22:26:24.016Z,14.13
2023-05-21T22:28:52.462Z,14.04
2023-05-21T22:31:24.500Z,14.06
2023-05-21T22:33:52.610Z,13.97
2023-05-21T22:36:23.157Z,13.87
2023-05-21T22:38:51.292Z,13.78
2023-05-21T22:41:20.014Z,13.77
2023-05-21T22:43:49.285Z,13.74
2023-05-21T22:46:17.494Z,13.69
2023-05-21T22:48:46.334Z,13.58
2023-05-21T22:51:15.162Z,13.52
2023-05-21T22:53:43.433Z,13.45
2023-05-21T22:56:12.167Z,13.34
2023-05-21T22:58:40.419Z,13.31
2023-05-21T23:01:08.831Z,13.26
2023-05-21T23:03:38.959Z,13.15
2023-05-21T23:06:07.669Z,13.11
2023-05-21T23:08:35.989Z,13.06
2023-05-21T23:11:08.087Z,12.98
2023-05-21T23:13:36.341Z,13.00
2023-05-21T23:16:04.646Z,12.94
2023-05-21T23:18:33.353Z,12.92
2023-05-21T23:21:02.222Z,12.92
2023-05-21T23:23:31.120Z,12.92
2023-05-21T23:25:59.395Z,12.92
2023-05-21T23:28:27.982Z,12.93
2023-05-21T23:30:56.918Z,12.89
2023-05-21T23:33:24.998Z,12.98
2023-05-21T23:35:53.250Z,12.97
2023-05-21T23:38:22.296Z,13.08
2023-05-21T23:40:52.493Z,13.19
2023-05-21T23:43:22.979Z,13.38
2023-05-21T23:45:51.065Z,13.46
2023-05-21T23:48:19.157Z,13.52
2023-05-21T23:50:47.536Z,13.52
2023-05-21T23:53:15.501Z,13.55
2023-05-21T23:55:44.611Z,13.59
2023-05-21T23:58:15.857Z,13.63
